sensor_id;sensor_type;location;lat;lon;timestamp;temperature;humidity
5850;DHT22;2951;47.712;9.400;2022-10-13T00:00:47;13.90;99.90
5850;DHT22;2951;47.712;9.400;2022-10-13T00:03:15;14.00;99.90
5850;DHT22;2951;47.712;9.400;2022-10-13T00:05:42;14.00;99.90
5850;DHT22;2951;47.712;9.400;2022-10-13T00:08:10;14.10;99.90
5850;DHT22;2951;47.712;9.400;2022-10-13T00:10:38;14.10;99.90
5850;DHT22;2951;47.712;9.400;2022-10-13T00:13:05;14.10;99.90
5850;DHT22;2951;47.712;9.400;2022-10-13T00:15:35;14.10;99.90
5850;DHT22;2951;47.712;9.400;2022-10-13T00:18:02;14.10;99.90
5850;DHT22;2951;47.712;9.400;2022-10-13T00:20:29;14.10;99.90
5850;DHT22;2951;47.712;9.400;2022-10-13T00:22:55;14.10;99.90
5850;DHT22;2951;47.712;9.400;2022-10-13T00:25:22;14.00;99.90
5850;DHT22;2951;47.712;9.400;2022-10-13T00:27:49;14.00;99.90
5850;DHT22;2951;47.712;9.400;2022-10-13T00:30:15;14.10;99.90
5850;DHT22;2951;47.712;9.400;2022-10-13T00:32:42;14.10;99.90
5850;DHT22;2951;47.712;9.400;2022-10-13T00:35:09;14.10;99.90
5850;DHT22;2951;47.712;9.400;2022-10-13T00:37:36;14.10;99.90
5850;DHT22;2951;47.712;9.400;2022-10-13T00:40:02;14.20;99.90
5850;DHT22;2951;47.712;9.400;2022-10-13T00:42:29;14.10;99.90
5850;DHT22;2951;47.712;9.400;2022-10-13T00:45:30;14.00;99.90
5850;DHT22;2951;47.712;9.400;2022-10-13T00:47:50;14.00;99.90
5850;DHT22;2951;47.712;9.400;2022-10-13T00:50:20;14.10;99.90
5850;DHT22;2951;47.712;9.400;2022-10-13T00:52:49;14.10;99.90
5850;DHT22;2951;47.712;9.400;2022-10-13T00:55:17;14.00;99.90
5850;DHT22;2951;47.712;9.400;2022-10-13T00:57:45;14.00;99.90
5850;DHT22;2951;47.712;9.400;2022-10-13T01:00:12;14.00;99.90
5850;DHT22;2951;47.712;9.400;2022-10-13T01:02:39;14.00;99.90
5850;DHT22;2951;47.712;9.400;2022-10-13T01:05:06;13.90;99.90
5850;DHT22;2951;47.712;9.400;2022-10-13T01:07:33;13.90;99.90
5850;DHT22;2951;47.712;9.400;2022-10-13T01:10:00;13.80;99.90
5850;DHT22;2951;47.712;9.400;2022-10-13T01:12:40;13.80;99.90
5850;DHT22;2951;47.712;9.400;2022-10-13T01:17:42;13.70;99.90
5850;DHT22;2951;47.712;9.400;2022-10-13T01:22:51;13.70;99.90
5850;DHT22;2951;47.712;9.400;2022-10-13T01:25:29;13.80;99.90
5850;DHT22;2951;47.712;9.400;2022-10-13T01:28:06;13.80;99.90
5850;DHT22;2951;47.712;9.400;2022-10-13T01:30:41;13.80;99.90
5850;DHT22;2951;47.712;9.400;2022-10-13T01:43:22;13.90;99.90
5850;DHT22;2951;47.712;9.400;2022-10-13T01:45:52;13.80;99.90
5850;DHT22;2951;47.712;9.400;2022-10-13T01:48:20;13.80;99.90
5850;DHT22;2951;47.712;9.400;2022-10-13T01:50:47;13.80;99.90
5850;DHT22;2951;47.712;9.400;2022-10-13T01:53:14;13.80;99.90
5850;DHT22;2951;47.712;9.400;2022-10-13T01:55:50;13.70;99.90
5850;DHT22;2951;47.712;9.400;2022-10-13T01:58:17;13.70;99.90
5850;DHT22;2951;47.712;9.400;2022-10-13T02:00:49;13.70;99.90
5850;DHT22;2951;47.712;9.400;2022-10-13T02:03:25;13.70;99.90
5850;DHT22;2951;47.712;9.400;2022-10-13T02:05:56;13.70;99.90
5850;DHT22;2951;47.712;9.400;2022-10-13T02:08:38;13.70;99.90
5850;DHT22;2951;47.712;9.400;2022-10-13T02:13:41;13.60;99.90
5850;DHT22;2951;47.712;9.400;2022-10-13T02:16:09;13.60;99.90
5850;DHT22;2951;47.712;9.400;2022-10-13T02:18:36;13.70;99.90
5850;DHT22;2951;47.712;9.400;2022-10-13T02:21:03;13.60;99.90
5850;DHT22;2951;47.712;9.400;2022-10-13T02:23:30;13.60;99.90
5850;DHT22;2951;47.712;9.400;2022-10-13T02:25:57;13.70;99.90
5850;DHT22;2951;47.712;9.400;2022-10-13T02:28:24;13.70;99.90
5850;DHT22;2951;47.712;9.400;2022-10-13T02:30:52;13.70;99.90
5850;DHT22;2951;47.712;9.400;2022-10-13T02:33:18;13.70;99.90
5850;DHT22;2951;47.712;9.400;2022-10-13T02:35:45;13.70;99.90
5850;DHT22;2951;47.712;9.400;2022-10-13T02:38:12;13.70;99.90
5850;DHT22;2951;47.712;9.400;2022-10-13T02:40:38;13.70;99.90
5850;DHT22;2951;47.712;9.400;2022-10-13T02:43:05;13.70;99.90
5850;DHT22;2951;47.712;9.400;2022-10-13T02:45:32;13.70;99.90
5850;DHT22;2951;47.712;9.400;2022-10-13T02:47:59;13.70;99.90
5850;DHT22;2951;47.712;9.400;2022-10-13T02:50:25;13.70;99.90
5850;DHT22;2951;47.712;9.400;2022-10-13T02:52:52;13.70;99.90
5850;DHT22;2951;47.712;9.400;2022-10-13T02:55:19;13.70;99.90
5850;DHT22;2951;47.712;9.400;2022-10-13T02:57:45;13.70;99.90
5850;DHT22;2951;47.712;9.400;2022-10-13T03:00:13;13.70;99.90
5850;DHT22;2951;47.712;9.400;2022-10-13T03:02:40;13.70;99.90
5850;DHT22;2951;47.712;9.400;2022-10-13T03:05:07;13.70;99.90
5850;DHT22;2951;47.712;9.400;2022-10-13T03:07:34;13.70;99.90
5850;DHT22;2951;47.712;9.400;2022-10-13T03:10:00;13.70;99.90
5850;DHT22;2951;47.712;9.400;2022-10-13T03:12:27;13.70;99.90
5850;DHT22;2951;47.712;9.400;2022-10-13T03:14:54;13.70;99.90
5850;DHT22;2951;47.712;9.400;2022-10-13T03:17:20;13.70;99.90
5850;DHT22;2951;47.712;9.400;2022-10-13T03:19:47;13.70;99.90
5850;DHT22;2951;47.712;9.400;2022-10-13T03:22:14;13.70;99.90
5850;DHT22;2951;47.712;9.400;2022-10-13T03:24:41;13.70;99.90
5850;DHT22;2951;47.712;9.400;2022-10-13T03:27:08;13.60;99.90
5850;DHT22;2951;47.712;9.400;2022-10-13T03:29:34;13.60;99.90
5850;DHT22;2951;47.712;9.400;2022-10-13T03:32:01;13.60;99.90
5850;DHT22;2951;47.712;9.400;2022-10-13T03:34:28;13.60;99.90
5850;DHT22;2951;47.712;9.400;2022-10-13T03:36:55;13.50;99.90
5850;DHT22;2951;47.712;9.400;2022-10-13T03:39:21;13.50;99.90
5850;DHT22;2951;47.712;9.400;2022-10-13T03:41:48;13.50;99.90
5850;DHT22;2951;47.712;9.400;2022-10-13T03:44:15;13.40;99.90
5850;DHT22;2951;47.712;9.400;2022-10-13T03:46:41;13.50;99.90
5850;DHT22;2951;47.712;9.400;2022-10-13T03:49:09;13.50;99.90
5850;DHT22;2951;47.712;9.400;2022-10-13T03:51:36;13.50;99.90
5850;DHT22;2951;47.712;9.400;2022-10-13T03:54:03;13.40;99.90
5850;DHT22;2951;47.712;9.400;2022-10-13T03:56:30;13.40;99.90
5850;DHT22;2951;47.712;9.400;2022-10-13T03:58:58;13.40;99.90
5850;DHT22;2951;47.712;9.400;2022-10-13T04:01:26;13.40;99.90
5850;DHT22;2951;47.712;9.400;2022-10-13T04:03:53;13.40;99.90
5850;DHT22;2951;47.712;9.400;2022-10-13T04:06:21;13.40;99.90
5850;DHT22;2951;47.712;9.400;2022-10-13T04:08:48;13.40;99.90
5850;DHT22;2951;47.712;9.400;2022-10-13T04:11:15;13.40;99.90
5850;DHT22;2951;47.712;9.400;2022-10-13T04:13:42;13.40;99.90
5850;DHT22;2951;47.712;9.400;2022-10-13T04:16:16;13.40;99.90
5850;DHT22;2951;47.712;9.400;2022-10-13T04:18:43;13.40;99.90
5850;DHT22;2951;47.712;9.400;2022-10-13T04:21:13;13.50;99.90
5850;DHT22;2951;47.712;9.400;2022-10-13T04:23:40;13.50;99.90
5850;DHT22;2951;47.712;9.400;2022-10-13T04:26:13;13.60;99.90
5850;DHT22;2951;47.712;9.400;2022-10-13T04:28:41;13.60;99.90
5850;DHT22;2951;47.712;9.400;2022-10-13T04:31:08;13.60;99.90
5850;DHT22;2951;47.712;9.400;2022-10-13T04:33:34;13.60;99.90
5850;DHT22;2951;47.712;9.400;2022-10-13T04:36:07;13.60;99.90
5850;DHT22;2951;47.712;9.400;2022-10-13T04:38:35;13.60;99.90
5850;DHT22;2951;47.712;9.400;2022-10-13T04:41:02;13.60;99.90
5850;DHT22;2951;47.712;9.400;2022-10-13T04:43:29;13.60;99.90
5850;DHT22;2951;47.712;9.400;2022-10-13T04:46:00;13.50;99.90
5850;DHT22;2951;47.712;9.400;2022-10-13T04:48:26;13.50;99.90
5850;DHT22;2951;47.712;9.400;2022-10-13T04:51:07;13.40;99.90
5850;DHT22;2951;47.712;9.400;2022-10-13T04:53:34;13.40;99.90
5850;DHT22;2951;47.712;9.400;2022-10-13T04:56:02;13.40;99.90
5850;DHT22;2951;47.712;9.400;2022-10-13T04:58:29;13.40;99.90
5850;DHT22;2951;47.712;9.400;2022-10-13T05:00:56;13.40;99.90
5850;DHT22;2951;47.712;9.400;2022-10-13T05:03:23;13.50;99.90
5850;DHT22;2951;47.712;9.400;2022-10-13T05:05:50;13.40;99.90
5850;DHT22;2951;47.712;9.400;2022-10-13T05:08:16;13.50;99.90
5850;DHT22;2951;47.712;9.400;2022-10-13T05:10:51;13.50;99.90
5850;DHT22;2951;47.712;9.400;2022-10-13T05:13:18;13.60;99.90
5850;DHT22;2951;47.712;9.400;2022-10-13T05:15:45;13.60;99.90
5850;DHT22;2951;47.712;9.400;2022-10-13T05:18:11;13.60;99.90
5850;DHT22;2951;47.712;9.400;2022-10-13T05:20:38;13.60;99.90
5850;DHT22;2951;47.712;9.400;2022-10-13T05:23:05;13.70;99.90
5850;DHT22;2951;47.712;9.400;2022-10-13T05:25:33;13.70;99.90
5850;DHT22;2951;47.712;9.400;2022-10-13T05:27:59;13.70;99.90
5850;DHT22;2951;47.712;9.400;2022-10-13T05:30:26;13.70;99.90
5850;DHT22;2951;47.712;9.400;2022-10-13T05:32:53;13.70;99.90
5850;DHT22;2951;47.712;9.400;2022-10-13T05:35:20;13.70;99.90
5850;DHT22;2951;47.712;9.400;2022-10-13T05:37:46;13.60;99.90
5850;DHT22;2951;47.712;9.400;2022-10-13T05:40:13;13.60;99.90
5850;DHT22;2951;47.712;9.400;2022-10-13T05:42:40;13.70;99.90
5850;DHT22;2951;47.712;9.400;2022-10-13T05:45:07;13.70;99.90
5850;DHT22;2951;47.712;9.400;2022-10-13T05:47:34;13.70;99.90
5850;DHT22;2951;47.712;9.400;2022-10-13T05:50:01;13.70;99.90
5850;DHT22;2951;47.712;9.400;2022-10-13T05:52:27;13.70;99.90
5850;DHT22;2951;47.712;9.400;2022-10-13T05:54:55;13.80;99.90
5850;DHT22;2951;47.712;9.400;2022-10-13T05:57:29;13.80;99.90
5850;DHT22;2951;47.712;9.400;2022-10-13T05:59:58;13.70;99.90
5850;DHT22;2951;47.712;9.400;2022-10-13T06:02:27;13.70;99.90
5850;DHT22;2951;47.712;9.400;2022-10-13T06:05:00;13.70;99.90
5850;DHT22;2951;47.712;9.400;2022-10-13T06:07:28;13.80;99.90
5850;DHT22;2951;47.712;9.400;2022-10-13T06:09:56;13.80;99.90
5850;DHT22;2951;47.712;9.400;2022-10-13T06:12:23;13.90;99.90
5850;DHT22;2951;47.712;9.400;2022-10-13T06:14:50;13.90;99.90
5850;DHT22;2951;47.712;9.400;2022-10-13T06:17:16;13.90;99.90
5850;DHT22;2951;47.712;9.400;2022-10-13T06:19:43;14.00;99.90
5850;DHT22;2951;47.712;9.400;2022-10-13T06:22:10;14.00;99.90
5850;DHT22;2951;47.712;9.400;2022-10-13T06:24:37;13.90;99.90
5850;DHT22;2951;47.712;9.400;2022-10-13T06:27:04;14.00;99.90
5850;DHT22;2951;47.712;9.400;2022-10-13T06:29:30;14.10;99.90
5850;DHT22;2951;47.712;9.400;2022-10-13T06:31:58;14.10;99.90
5850;DHT22;2951;47.712;9.400;2022-10-13T06:34:25;14.00;99.90
5850;DHT22;2951;47.712;9.400;2022-10-13T06:36:52;14.00;99.90
5850;DHT22;2951;47.712;9.400;2022-10-13T06:39:18;14.00;99.90
5850;DHT22;2951;47.712;9.400;2022-10-13T06:41:46;14.00;99.90
5850;DHT22;2951;47.712;9.400;2022-10-13T06:44:13;14.00;99.90
5850;DHT22;2951;47.712;9.400;2022-10-13T06:46:40;14.00;99.90
5850;DHT22;2951;47.712;9.400;2022-10-13T06:49:06;14.10;99.90
5850;DHT22;2951;47.712;9.400;2022-10-13T06:51:35;14.10;99.90
5850;DHT22;2951;47.712;9.400;2022-10-13T06:54:02;14.10;99.90
5850;DHT22;2951;47.712;9.400;2022-10-13T06:56:30;14.20;99.90
5850;DHT22;2951;47.712;9.400;2022-10-13T06:58:57;14.20;99.90
5850;DHT22;2951;47.712;9.400;2022-10-13T07:01:24;14.20;99.90
5850;DHT22;2951;47.712;9.400;2022-10-13T07:03:50;14.30;99.90
5850;DHT22;2951;47.712;9.400;2022-10-13T07:06:17;14.30;99.90
5850;DHT22;2951;47.712;9.400;2022-10-13T07:08:44;14.30;99.90
5850;DHT22;2951;47.712;9.400;2022-10-13T07:11:12;14.40;99.90
5850;DHT22;2951;47.712;9.400;2022-10-13T07:13:41;14.50;99.90
5850;DHT22;2951;47.712;9.400;2022-10-13T07:16:11;14.50;99.90
5850;DHT22;2951;47.712;9.400;2022-10-13T07:18:38;14.40;99.90
5850;DHT22;2951;47.712;9.400;2022-10-13T07:21:04;14.40;99.90
5850;DHT22;2951;47.712;9.400;2022-10-13T07:23:32;14.50;99.90
5850;DHT22;2951;47.712;9.400;2022-10-13T07:25:59;14.60;99.90
5850;DHT22;2951;47.712;9.400;2022-10-13T07:28:27;14.60;99.90
5850;DHT22;2951;47.712;9.400;2022-10-13T07:30:53;14.60;99.90
5850;DHT22;2951;47.712;9.400;2022-10-13T07:33:20;14.70;99.90
5850;DHT22;2951;47.712;9.400;2022-10-13T07:35:47;14.70;99.90
5850;DHT22;2951;47.712;9.400;2022-10-13T07:38:14;14.70;99.90
5850;DHT22;2951;47.712;9.400;2022-10-13T07:40:41;14.70;99.90
5850;DHT22;2951;47.712;9.400;2022-10-13T07:43:07;14.80;99.90
5850;DHT22;2951;47.712;9.400;2022-10-13T07:45:34;14.80;99.90
5850;DHT22;2951;47.712;9.400;2022-10-13T07:48:00;14.80;99.90
5850;DHT22;2951;47.712;9.400;2022-10-13T07:50:27;14.80;99.90
5850;DHT22;2951;47.712;9.400;2022-10-13T07:52:55;14.70;99.90
5850;DHT22;2951;47.712;9.400;2022-10-13T07:55:21;14.70;99.90
5850;DHT22;2951;47.712;9.400;2022-10-13T07:57:48;14.80;99.90
5850;DHT22;2951;47.712;9.400;2022-10-13T08:00:15;14.80;99.90
5850;DHT22;2951;47.712;9.400;2022-10-13T08:02:42;14.80;99.90
5850;DHT22;2951;47.712;9.400;2022-10-13T08:05:08;14.80;99.90
5850;DHT22;2951;47.712;9.400;2022-10-13T08:07:35;14.90;99.90
5850;DHT22;2951;47.712;9.400;2022-10-13T08:10:04;14.80;99.90
5850;DHT22;2951;47.712;9.400;2022-10-13T08:12:31;15.00;99.90
5850;DHT22;2951;47.712;9.400;2022-10-13T08:15:00;15.00;99.90
5850;DHT22;2951;47.712;9.400;2022-10-13T08:17:30;15.10;99.90
5850;DHT22;2951;47.712;9.400;2022-10-13T08:19:57;15.20;99.90
5850;DHT22;2951;47.712;9.400;2022-10-13T08:22:24;15.20;99.90
5850;DHT22;2951;47.712;9.400;2022-10-13T08:24:53;15.30;99.90
5850;DHT22;2951;47.712;9.400;2022-10-13T08:27:22;15.30;99.90
5850;DHT22;2951;47.712;9.400;2022-10-13T08:29:52;15.40;99.90
5850;DHT22;2951;47.712;9.400;2022-10-13T08:32:20;15.50;99.90
5850;DHT22;2951;47.712;9.400;2022-10-13T08:34:48;15.40;99.90
5850;DHT22;2951;47.712;9.400;2022-10-13T08:37:15;15.40;99.90
5850;DHT22;2951;47.712;9.400;2022-10-13T08:39:42;15.40;99.90
5850;DHT22;2951;47.712;9.400;2022-10-13T08:42:19;15.50;99.90
5850;DHT22;2951;47.712;9.400;2022-10-13T08:44:52;15.80;99.90
5850;DHT22;2951;47.712;9.400;2022-10-13T08:50:27;16.20;99.90
5850;DHT22;2951;47.712;9.400;2022-10-13T08:53:02;16.20;99.90
5850;DHT22;2951;47.712;9.400;2022-10-13T08:58:00;16.40;99.90
5850;DHT22;2951;47.712;9.400;2022-10-13T09:00:27;16.50;99.90
5850;DHT22;2951;47.712;9.400;2022-10-13T09:02:56;16.50;99.90
5850;DHT22;2951;47.712;9.400;2022-10-13T09:05:33;16.40;99.90
5850;DHT22;2951;47.712;9.400;2022-10-13T09:08:01;16.50;99.90
5850;DHT22;2951;47.712;9.400;2022-10-13T09:10:28;16.30;99.90
5850;DHT22;2951;47.712;9.400;2022-10-13T09:12:55;16.40;99.90
5850;DHT22;2951;47.712;9.400;2022-10-13T09:15:24;16.60;99.90
5850;DHT22;2951;47.712;9.400;2022-10-13T09:18:24;16.80;99.90
5850;DHT22;2951;47.712;9.400;2022-10-13T09:20:43;16.80;99.90
5850;DHT22;2951;47.712;9.400;2022-10-13T09:25:41;16.60;99.90
5850;DHT22;2951;47.712;9.400;2022-10-13T09:28:09;16.60;99.90
5850;DHT22;2951;47.712;9.400;2022-10-13T09:30:41;16.80;99.90
5850;DHT22;2951;47.712;9.400;2022-10-13T09:35:35;16.50;99.90
5850;DHT22;2951;47.712;9.400;2022-10-13T09:38:09;16.40;99.90
5850;DHT22;2951;47.712;9.400;2022-10-13T09:40:36;16.50;99.90
5850;DHT22;2951;47.712;9.400;2022-10-13T09:43:05;16.50;99.90
5850;DHT22;2951;47.712;9.400;2022-10-13T09:45:32;16.60;99.90
5850;DHT22;2951;47.712;9.400;2022-10-13T09:48:03;16.70;99.90
5850;DHT22;2951;47.712;9.400;2022-10-13T09:50:31;16.60;99.90
5850;DHT22;2951;47.712;9.400;2022-10-13T09:55:46;16.90;99.90
5850;DHT22;2951;47.712;9.400;2022-10-13T09:58:17;16.90;99.90
5850;DHT22;2951;47.712;9.400;2022-10-13T10:00:45;16.90;99.90
5850;DHT22;2951;47.712;9.400;2022-10-13T10:03:27;17.10;99.90
5850;DHT22;2951;47.712;9.400;2022-10-13T10:05:56;17.00;99.90
5850;DHT22;2951;47.712;9.400;2022-10-13T10:11:02;17.00;99.90
5850;DHT22;2951;47.712;9.400;2022-10-13T10:13:30;17.00;99.90
5850;DHT22;2951;47.712;9.400;2022-10-13T10:16:00;17.00;99.90
5850;DHT22;2951;47.712;9.400;2022-10-13T10:18:36;16.80;99.90
5850;DHT22;2951;47.712;9.400;2022-10-13T10:21:09;16.90;99.90
5850;DHT22;2951;47.712;9.400;2022-10-13T10:23:53;17.00;99.90
5850;DHT22;2951;47.712;9.400;2022-10-13T10:26:24;16.90;99.90
5850;DHT22;2951;47.712;9.400;2022-10-13T10:36:39;16.60;99.90
5850;DHT22;2951;47.712;9.400;2022-10-13T10:46:40;16.30;99.90
5850;DHT22;2951;47.712;9.400;2022-10-13T10:49:30;16.20;99.90
5850;DHT22;2951;47.712;9.400;2022-10-13T10:52:00;16.10;99.90
5850;DHT22;2951;47.712;9.400;2022-10-13T10:57:07;16.30;99.90
5850;DHT22;2951;47.712;9.400;2022-10-13T11:04:42;16.40;99.90
5850;DHT22;2951;47.712;9.400;2022-10-13T11:07:10;16.50;99.90
5850;DHT22;2951;47.712;9.400;2022-10-13T11:15:06;17.30;99.90
5850;DHT22;2951;47.712;9.400;2022-10-13T11:17:34;17.20;99.90
5850;DHT22;2951;47.712;9.400;2022-10-13T11:23:30;17.20;99.90
5850;DHT22;2951;47.712;9.400;2022-10-13T11:38:45;17.80;99.90
5850;DHT22;2951;47.712;9.400;2022-10-13T11:41:21;17.90;99.90
5850;DHT22;2951;47.712;9.400;2022-10-13T11:44:07;18.00;99.90
5850;DHT22;2951;47.712;9.400;2022-10-13T11:46:45;18.10;99.90
5850;DHT22;2951;47.712;9.400;2022-10-13T11:54:38;17.70;99.90
5850;DHT22;2951;47.712;9.400;2022-10-13T11:57:16;17.70;99.90
5850;DHT22;2951;47.712;9.400;2022-10-13T11:59:48;17.70;99.90
5850;DHT22;2951;47.712;9.400;2022-10-13T12:02:15;17.60;99.90
5850;DHT22;2951;47.712;9.400;2022-10-13T12:04:45;17.50;99.90
5850;DHT22;2951;47.712;9.400;2022-10-13T12:07:24;17.40;99.90
5850;DHT22;2951;47.712;9.400;2022-10-13T12:09:52;17.50;99.90
5850;DHT22;2951;47.712;9.400;2022-10-13T12:12:19;17.50;99.90
5850;DHT22;2951;47.712;9.400;2022-10-13T12:14:53;17.60;99.90
5850;DHT22;2951;47.712;9.400;2022-10-13T12:17:31;17.60;99.90
5850;DHT22;2951;47.712;9.400;2022-10-13T12:19:59;17.70;99.90
5850;DHT22;2951;47.712;9.400;2022-10-13T12:22:27;17.80;99.90
5850;DHT22;2951;47.712;9.400;2022-10-13T12:25:04;17.90;99.90
5850;DHT22;2951;47.712;9.400;2022-10-13T12:27:32;17.90;
5850;DHT22;2951;47.712;9.400;2022-10-13T12:30:18;17.50;99.90
5850;DHT22;2951;47.712;9.400;2022-10-13T12:32:49;17.40;99.90
5850;DHT22;2951;47.712;9.400;2022-10-13T12:35:27;17.30;99.90
5850;DHT22;2951;47.712;9.400;2022-10-13T12:37:54;17.20;99.90
5850;DHT22;2951;47.712;9.400;2022-10-13T12:40:21;17.20;99.90
5850;DHT22;2951;47.712;9.400;2022-10-13T12:42:48;17.30;99.90
5850;DHT22;2951;47.712;9.400;2022-10-13T12:45:16;17.30;99.90
5850;DHT22;2951;47.712;9.400;2022-10-13T12:55:28;17.80;99.90
5850;DHT22;2951;47.712;9.400;2022-10-13T12:57:55;17.80;99.90
5850;DHT22;2951;47.712;9.400;2022-10-13T13:00:22;17.90;99.90
5850;DHT22;2951;47.712;9.400;2022-10-13T13:02:53;17.90;99.90
5850;DHT22;2951;47.712;9.400;2022-10-13T13:05:28;17.90;99.90
5850;DHT22;2951;47.712;9.400;2022-10-13T13:07:55;17.80;99.90
5850;DHT22;2951;47.712;9.400;2022-10-13T13:10:22;17.80;99.90
5850;DHT22;2951;47.712;9.400;2022-10-13T13:12:50;18.20;99.90
5850;DHT22;2951;47.712;9.400;2022-10-13T13:17:53;18.10;99.90
5850;DHT22;2951;47.712;9.400;2022-10-13T13:20:26;17.90;99.90
5850;DHT22;2951;47.712;9.400;2022-10-13T13:22:54;18.00;99.90
5850;DHT22;2951;47.712;9.400;2022-10-13T13:25:21;17.70;99.90
5850;DHT22;2951;47.712;9.400;2022-10-13T13:27:48;17.70;99.90
5850;DHT22;2951;47.712;9.400;2022-10-13T13:30:16;17.70;99.90
5850;DHT22;2951;47.712;9.400;2022-10-13T13:32:43;17.80;99.90
5850;DHT22;2951;47.712;9.400;2022-10-13T13:35:09;17.90;99.90
5850;DHT22;2951;47.712;9.400;2022-10-13T13:37:37;17.90;99.90
5850;DHT22;2951;47.712;9.400;2022-10-13T13:40:05;17.90;99.90
5850;DHT22;2951;47.712;9.400;2022-10-13T13:42:32;17.90;99.90
5850;DHT22;2951;47.712;9.400;2022-10-13T13:44:59;17.90;99.90
5850;DHT22;2951;47.712;9.400;2022-10-13T13:47:26;18.00;99.90
5850;DHT22;2951;47.712;9.400;2022-10-13T13:49:54;18.10;99.90
5850;DHT22;2951;47.712;9.400;2022-10-13T13:52:21;18.10;99.90
5850;DHT22;2951;47.712;9.400;2022-10-13T13:54:49;18.20;99.90
5850;DHT22;2951;47.712;9.400;2022-10-13T13:57:16;18.20;99.90
5850;DHT22;2951;47.712;9.400;2022-10-13T13:59:44;18.30;99.90
5850;DHT22;2951;47.712;9.400;2022-10-13T14:02:12;18.20;99.90
5850;DHT22;2951;47.712;9.400;2022-10-13T14:04:39;18.10;99.90
5850;DHT22;2951;47.712;9.400;2022-10-13T14:07:05;17.90;99.90
5850;DHT22;2951;47.712;9.400;2022-10-13T14:09:32;17.80;99.90
5850;DHT22;2951;47.712;9.400;2022-10-13T14:11:59;17.70;99.90
5850;DHT22;2951;47.712;9.400;2022-10-13T14:14:26;17.60;99.90
5850;DHT22;2951;47.712;9.400;2022-10-13T14:16:55;17.50;99.90
5850;DHT22;2951;47.712;9.400;2022-10-13T14:19:21;17.50;99.90
5850;DHT22;2951;47.712;9.400;2022-10-13T14:21:48;17.40;99.90
5850;DHT22;2951;47.712;9.400;2022-10-13T14:24:15;17.40;99.90
5850;DHT22;2951;47.712;9.400;2022-10-13T14:26:41;17.30;99.90
5850;DHT22;2951;47.712;9.400;2022-10-13T14:29:08;17.30;99.90
5850;DHT22;2951;47.712;9.400;2022-10-13T14:31:35;17.20;99.90
5850;DHT22;2951;47.712;9.400;2022-10-13T14:34:01;17.20;99.90
5850;DHT22;2951;47.712;9.400;2022-10-13T14:36:28;17.10;99.90
5850;DHT22;2951;47.712;9.400;2022-10-13T14:38:55;17.20;99.90
5850;DHT22;2951;47.712;9.400;2022-10-13T14:41:22;17.10;99.90
5850;DHT22;2951;47.712;9.400;2022-10-13T14:43:52;17.00;99.90
5850;DHT22;2951;47.712;9.400;2022-10-13T14:46:20;16.90;99.90
5850;DHT22;2951;47.712;9.400;2022-10-13T14:48:47;16.80;99.90
5850;DHT22;2951;47.712;9.400;2022-10-13T14:51:14;16.90;99.90
5850;DHT22;2951;47.712;9.400;2022-10-13T14:53:41;17.00;99.90
5850;DHT22;2951;47.712;9.400;2022-10-13T14:56:21;16.90;99.90
5850;DHT22;2951;47.712;9.400;2022-10-13T14:58:49;16.70;99.90
5850;DHT22;2951;47.712;9.400;2022-10-13T15:01:16;16.60;99.90
5850;DHT22;2951;47.712;9.400;2022-10-13T15:03:43;16.60;99.90
5850;DHT22;2951;47.712;9.400;2022-10-13T15:06:12;16.50;99.90
5850;DHT22;2951;47.712;9.400;2022-10-13T15:08:39;16.50;99.90
5850;DHT22;2951;47.712;9.400;2022-10-13T15:11:06;16.50;99.90
5850;DHT22;2951;47.712;9.400;2022-10-13T15:13:32;16.40;99.90
5850;DHT22;2951;47.712;9.400;2022-10-13T15:15:59;16.40;99.90
5850;DHT22;2951;47.712;9.400;2022-10-13T15:18:30;16.40;99.90
5850;DHT22;2951;47.712;9.400;2022-10-13T15:20:58;16.40;99.90
5850;DHT22;2951;47.712;9.400;2022-10-13T15:23:25;16.30;99.90
5850;DHT22;2951;47.712;9.400;2022-10-13T15:25:56;16.30;99.90
5850;DHT22;2951;47.712;9.400;2022-10-13T15:28:25;16.30;99.90
5850;DHT22;2951;47.712;9.400;2022-10-13T15:30:52;16.30;99.90
5850;DHT22;2951;47.712;9.400;2022-10-13T15:33:19;16.30;99.90
5850;DHT22;2951;47.712;9.400;2022-10-13T15:35:49;16.30;99.90
5850;DHT22;2951;47.712;9.400;2022-10-13T15:38:16;16.40;99.90
5850;DHT22;2951;47.712;9.400;2022-10-13T15:40:43;16.40;99.90
5850;DHT22;2951;47.712;9.400;2022-10-13T15:43:10;16.30;99.90
5850;DHT22;2951;47.712;9.400;2022-10-13T15:45:36;16.30;99.90
5850;DHT22;2951;47.712;9.400;2022-10-13T15:48:03;16.40;99.90
5850;DHT22;2951;47.712;9.400;2022-10-13T15:50:30;16.40;99.90
5850;DHT22;2951;47.712;9.400;2022-10-13T15:52:57;16.30;99.90
5850;DHT22;2951;47.712;9.400;2022-10-13T15:55:24;16.10;99.90
5850;DHT22;2951;47.712;9.400;2022-10-13T15:57:51;16.20;99.90
5850;DHT22;2951;47.712;9.400;2022-10-13T16:00:19;16.20;99.90
5850;DHT22;2951;47.712;9.400;2022-10-13T16:02:47;16.20;99.90
5850;DHT22;2951;47.712;9.400;2022-10-13T16:05:14;16.10;99.90
5850;DHT22;2951;47.712;9.400;2022-10-13T16:07:41;16.10;99.90
5850;DHT22;2951;47.712;9.400;2022-10-13T16:10:08;16.00;99.90
5850;DHT22;2951;47.712;9.400;2022-10-13T16:12:35;16.00;99.90
5850;DHT22;2951;47.712;9.400;2022-10-13T16:15:01;16.00;99.90
5850;DHT22;2951;47.712;9.400;2022-10-13T16:17:28;16.00;99.90
5850;DHT22;2951;47.712;9.400;2022-10-13T16:19:55;15.90;99.90
5850;DHT22;2951;47.712;9.400;2022-10-13T16:22:22;15.90;99.90
5850;DHT22;2951;47.712;9.400;2022-10-13T16:24:49;15.80;99.90
5850;DHT22;2951;47.712;9.400;2022-10-13T16:27:16;15.80;99.90
5850;DHT22;2951;47.712;9.400;2022-10-13T16:29:43;15.80;99.90
5850;DHT22;2951;47.712;9.400;2022-10-13T16:32:09;15.80;99.90
5850;DHT22;2951;47.712;9.400;2022-10-13T16:34:36;15.70;99.90
5850;DHT22;2951;47.712;9.400;2022-10-13T16:37:03;15.60;99.90
5850;DHT22;2951;47.712;9.400;2022-10-13T16:39:30;15.60;99.90
5850;DHT22;2951;47.712;9.400;2022-10-13T16:41:56;15.50;99.90
5850;DHT22;2951;47.712;9.400;2022-10-13T16:44:23;15.50;99.90
5850;DHT22;2951;47.712;9.400;2022-10-13T16:46:50;15.50;99.90
5850;DHT22;2951;47.712;9.400;2022-10-13T16:49:19;15.60;99.90
5850;DHT22;2951;47.712;9.400;2022-10-13T16:51:45;15.50;99.90
5850;DHT22;2951;47.712;9.400;2022-10-13T16:54:12;15.40;99.90
5850;DHT22;2951;47.712;9.400;2022-10-13T16:56:39;15.50;99.90
5850;DHT22;2951;47.712;9.400;2022-10-13T16:59:05;15.50;99.90
5850;DHT22;2951;47.712;9.400;2022-10-13T17:01:33;15.40;99.90
5850;DHT22;2951;47.712;9.400;2022-10-13T17:04:00;15.40;99.90
5850;DHT22;2951;47.712;9.400;2022-10-13T17:06:27;15.30;99.90
5850;DHT22;2951;47.712;9.400;2022-10-13T17:08:55;15.30;99.90
5850;DHT22;2951;47.712;9.400;2022-10-13T17:11:23;15.30;99.90
5850;DHT22;2951;47.712;9.400;2022-10-13T17:13:50;15.30;99.90
5850;DHT22;2951;47.712;9.400;2022-10-13T17:16:17;15.30;99.90
5850;DHT22;2951;47.712;9.400;2022-10-13T17:18:44;15.30;99.90
5850;DHT22;2951;47.712;9.400;2022-10-13T17:21:12;15.20;99.90
5850;DHT22;2951;47.712;9.400;2022-10-13T17:23:39;15.20;99.90
5850;DHT22;2951;47.712;9.400;2022-10-13T17:26:11;15.20;99.90
5850;DHT22;2951;47.712;9.400;2022-10-13T17:28:38;15.20;99.90
5850;DHT22;2951;47.712;9.400;2022-10-13T17:31:06;15.20;99.90
5850;DHT22;2951;47.712;9.400;2022-10-13T17:33:35;15.20;99.90
5850;DHT22;2951;47.712;9.400;2022-10-13T17:36:06;15.10;99.90
5850;DHT22;2951;47.712;9.400;2022-10-13T17:38:33;15.20;99.90
5850;DHT22;2951;47.712;9.400;2022-10-13T17:41:01;15.20;99.90
5850;DHT22;2951;47.712;9.400;2022-10-13T17:43:27;15.10;99.90